sensor_id;sensor_type;location;lat;lon;timestamp;pressure;altitude;pressure_sealevel;temperature;humidity
35758;BME280;21879;50.110;18.900;2023-02-01T00:06:09;98107.23;;;2.27;76.87
35758;BME280;21879;50.110;18.900;2023-02-01T00:16:37;98102.53;;;2.34;76.77
35758;BME280;21879;50.110;18.900;2023-02-01T00:27:05;98080.84;;;2.40;76.55
35758;BME280;21879;50.110;18.900;2023-02-01T00:37:32;98072.78;;;2.42;75.96
35758;BME280;21879;50.110;18.900;2023-02-01T00:48:01;98081.17;;;2.40;76.38
35758;BME280;21879;50.110;18.900;2023-02-01T00:58:28;98074.84;;;2.42;76.22
35758;BME280;21879;50.110;18.900;2023-02-01T01:08:58;98073.58;;;2.50;76.03
35758;BME280;21879;50.110;18.900;2023-02-01T01:19:26;98085.39;;;2.62;76.04
35758;BME280;21879;50.110;18.900;2023-02-01T01:29:54;98153.47;;;2.59;75.19
35758;BME280;21879;50.110;18.900;2023-02-01T01:40:22;98186.02;;;2.18;74.94
35758;BME280;21879;50.110;18.900;2023-02-01T01:50:54;98210.34;;;1.85;75.23
35758;BME280;21879;50.110;18.900;2023-02-01T02:01:23;98202.80;;;1.65;75.90
35758;BME280;21879;50.110;18.900;2023-02-01T02:11:51;98190.91;;;1.61;76.13
35758;BME280;21879;50.110;18.900;2023-02-01T02:22:41;98164.70;;;1.53;76.62
35758;BME280;21879;50.110;18.900;2023-02-01T02:33:34;98164.71;;;1.53;76.27
35758;BME280;21879;50.110;18.900;2023-02-01T02:44:13;98172.30;;;1.56;76.41
35758;BME280;21879;50.110;18.900;2023-02-01T02:55:06;98177.95;;;1.55;76.56
35758;BME280;21879;50.110;18.900;2023-02-01T03:05:36;98162.60;;;1.50;76.56
35758;BME280;21879;50.110;18.900;2023-02-01T03:16:09;98158.05;;;1.54;76.87
35758;BME280;21879;50.110;18.900;2023-02-01T03:26:57;98166.70;;;1.69;77.04
35758;BME280;21879;50.110;18.900;2023-02-01T03:37:29;98180.44;;;1.80;77.04
35758;BME280;21879;50.110;18.900;2023-02-01T03:47:58;98178.17;;;1.87;76.91
35758;BME280;21879;50.110;18.900;2023-02-01T03:58:28;98200.21;;;2.16;77.07
35758;BME280;21879;50.110;18.900;2023-02-01T04:08:56;98218.96;;;2.30;76.93
35758;BME280;21879;50.110;18.900;2023-02-01T04:19:25;98201.87;;;2.35;76.39
35758;BME280;21879;50.110;18.900;2023-02-01T04:29:53;98201.61;;;1.96;75.81
35758;BME280;21879;50.110;18.900;2023-02-01T04:40:24;98190.40;;;1.71;76.37
35758;BME280;21879;50.110;18.900;2023-02-01T04:50:52;98185.15;;;1.56;76.82
35758;BME280;21879;50.110;18.900;2023-02-01T05:01:21;98182.75;;;1.46;77.03
35758;BME280;21879;50.110;18.900;2023-02-01T05:11:49;98182.80;;;1.39;76.98
35758;BME280;21879;50.110;18.900;2023-02-01T05:22:34;98182.29;;;1.49;77.00
35758;BME280;21879;50.110;18.900;2023-02-01T05:33:01;98177.42;;;1.65;76.90
35758;BME280;21879;50.110;18.900;2023-02-01T05:43:29;98176.80;;;1.88;76.80
35758;BME280;21879;50.110;18.900;2023-02-01T05:53:57;98173.89;;;1.99;76.29
35758;BME280;21879;50.110;18.900;2023-02-01T06:04:24;98164.08;;;2.08;75.97
35758;BME280;21879;50.110;18.900;2023-02-01T06:14:52;98159.00;;;2.24;75.78
35758;BME280;21879;50.110;18.900;2023-02-01T06:25:20;98161.89;;;2.34;75.31
35758;BME280;21879;50.110;18.900;2023-02-01T06:35:49;98169.09;;;2.32;75.01
35758;BME280;21879;50.110;18.900;2023-02-01T06:46:24;98169.94;;;2.33;75.16
35758;BME280;21879;50.110;18.900;2023-02-01T06:56:51;98160.10;;;2.41;74.96
35758;BME280;21879;50.110;18.900;2023-02-01T07:07:19;98146.24;;;2.44;74.70
35758;BME280;21879;50.110;18.900;2023-02-01T07:17:48;98138.87;;;2.56;74.64
35758;BME280;21879;50.110;18.900;2023-02-01T07:28:16;98146.04;;;2.66;74.45
35758;BME280;21879;50.110;18.900;2023-02-01T07:38:44;98151.35;;;2.79;74.12
35758;BME280;21879;50.110;18.900;2023-02-01T07:49:13;98151.08;;;2.86;73.91
35758;BME280;21879;50.110;18.900;2023-02-01T07:59:40;98149.61;;;2.92;73.89
35758;BME280;21879;50.110;18.900;2023-02-01T08:10:28;98149.25;;;2.91;73.22
35758;BME280;21879;50.110;18.900;2023-02-01T08:20:55;98144.43;;;2.89;73.10
35758;BME280;21879;50.110;18.900;2023-02-01T08:31:24;98138.27;;;2.91;73.03
35758;BME280;21879;50.110;18.900;2023-02-01T08:41:53;98141.23;;;2.94;72.97
35758;BME280;21879;50.110;18.900;2023-02-01T08:52:35;98134.48;;;2.91;72.82
35758;BME280;21879;50.110;18.900;2023-02-01T09:03:03;98152.90;;;2.94;72.67
35758;BME280;21879;50.110;18.900;2023-02-01T09:13:31;98164.87;;;2.90;72.84
35758;BME280;21879;50.110;18.900;2023-02-01T09:23:59;98151.68;;;2.93;72.74
35758;BME280;21879;50.110;18.900;2023-02-01T09:34:27;98159.80;;;2.97;73.24
35758;BME280;21879;50.110;18.900;2023-02-01T09:45:19;98137.05;;;3.04;73.39
35758;BME280;21879;50.110;18.900;2023-02-01T09:55:51;98114.95;;;2.94;73.67
35758;BME280;21879;50.110;18.900;2023-02-01T10:06:42;98113.19;;;2.91;73.87
35758;BME280;21879;50.110;18.900;2023-02-01T10:17:22;98105.55;;;2.98;74.06
35758;BME280;21879;50.110;18.900;2023-02-01T10:27:53;98090.86;;;3.06;73.94
35758;BME280;21879;50.110;18.900;2023-02-01T10:38:25;98084.61;;;2.99;73.80
35758;BME280;21879;50.110;18.900;2023-02-01T10:48:56;98076.14;;;2.94;73.98
35758;BME280;21879;50.110;18.900;2023-02-01T10:59:29;98076.55;;;3.01;74.06
35758;BME280;21879;50.110;18.900;2023-02-01T11:09:59;98067.73;;;3.13;73.86
35758;BME280;21879;50.110;18.900;2023-02-01T11:20:38;98056.20;;;3.28;73.61
35758;BME280;21879;50.110;18.900;2023-02-01T11:31:11;98062.66;;;3.41;73.39
35758;BME280;21879;50.110;18.900;2023-02-01T11:41:44;98054.63;;;3.44;73.62
35758;BME280;21879;50.110;18.900;2023-02-01T11:52:41;98038.29;;;3.44;73.84
35758;BME280;21879;50.110;18.900;2023-02-01T12:03:31;98021.80;;;3.46;74.00
35758;BME280;21879;50.110;18.900;2023-02-01T12:14:23;97997.48;;;3.57;74.40
35758;BME280;21879;50.110;18.900;2023-02-01T12:35:47;97974.05;;;3.74;74.48
35758;BME280;21879;50.110;18.900;2023-02-01T12:46:19;97973.75;;;3.82;73.95
35758;BME280;21879;50.110;18.900;2023-02-01T12:56:51;97966.20;;;3.87;73.83
35758;BME280;21879;50.110;18.900;2023-02-01T13:07:25;97951.48;;;3.99;74.00
35758;BME280;21879;50.110;18.900;2023-02-01T13:17:57;97933.79;;;4.04;73.51
35758;BME280;21879;50.110;18.900;2023-02-01T13:28:30;97915.88;;;4.03;73.16
35758;BME280;21879;50.110;18.900;2023-02-01T13:39:35;97911.73;;;3.96;72.81
35758;BME280;21879;50.110;18.900;2023-02-01T13:50:21;97917.22;;;3.92;72.42
35758;BME280;21879;50.110;18.900;2023-02-01T14:00:51;97933.00;;;3.81;72.60
35758;BME280;21879;50.110;18.900;2023-02-01T14:11:47;97951.25;;;3.56;72.56
35758;BME280;21879;50.110;18.900;2023-02-01T14:22:32;97952.33;;;3.38;73.08
35758;BME280;21879;50.110;18.900;2023-02-01T14:33:19;97964.80;;;3.29;73.30
35758;BME280;21879;50.110;18.900;2023-02-01T14:44:21;97960.88;;;3.31;73.20
35758;BME280;21879;50.110;18.900;2023-02-01T14:54:53;97959.39;;;3.39;73.52
35758;BME280;21879;50.110;18.900;2023-02-01T15:05:31;97962.15;;;3.42;73.37
35758;BME280;21879;50.110;18.900;2023-02-01T15:16:04;97970.02;;;3.37;73.87
35758;BME280;21879;50.110;18.900;2023-02-01T15:26:35;97978.63;;;3.37;74.18
35758;BME280;21879;50.110;18.900;2023-02-01T15:37:06;97983.84;;;3.46;74.33
35758;BME280;21879;50.110;18.900;2023-02-01T15:47:34;97999.65;;;3.47;74.23
35758;BME280;21879;50.110;18.900;2023-02-01T15:58:06;98000.60;;;3.36;74.50
35758;BME280;21879;50.110;18.900;2023-02-01T16:08:35;98010.77;;;3.39;75.14
35758;BME280;21879;50.110;18.900;2023-02-01T16:19:02;98016.23;;;3.59;74.88
35758;BME280;21879;50.110;18.900;2023-02-01T16:29:29;98009.33;;;3.78;74.98
35758;BME280;21879;50.110;18.900;2023-02-01T16:39:57;98010.86;;;3.78;74.19
35758;BME280;21879;50.110;18.900;2023-02-01T16:50:26;98029.00;;;3.64;73.83
35758;BME280;21879;50.110;18.900;2023-02-01T17:00:54;98047.56;;;3.64;73.89
35758;BME280;21879;50.110;18.900;2023-02-01T17:11:22;98050.11;;;3.60;73.45
35758;BME280;21879;50.110;18.900;2023-02-01T17:21:51;98049.88;;;3.51;73.49
35758;BME280;21879;50.110;18.900;2023-02-01T17:32:24;98045.84;;;3.64;73.67
35758;BME280;21879;50.110;18.900;2023-02-01T17:42:54;98035.44;;;4.03;73.55
35758;BME280;21879;50.110;18.900;2023-02-01T17:53:23;98028.14;;;4.21;72.77
35758;BME280;21879;50.110;18.900;2023-02-01T18:03:51;98035.18;;;4.18;72.01
35758;BME280;21879;50.110;18.900;2023-02-01T18:14:18;98032.19;;;4.04;71.71
35758;BME280;21879;50.110;18.900;2023-02-01T18:24:46;98007.78;;;4.11;71.71
35758;BME280;21879;50.110;18.900;2023-02-01T18:35:20;97993.50;;;4.11;71.72
35758;BME280;21879;50.110;18.900;2023-02-01T18:45:48;97988.02;;;4.17;71.45
35758;BME280;21879;50.110;18.900;2023-02-01T18:56:18;97980.42;;;4.08;71.01
35758;BME280;21879;50.110;18.900;2023-02-01T19:06:46;97963.58;;;3.78;71.17
35758;BME280;21879;50.110;18.900;2023-02-01T19:17:13;97958.35;;;3.66;71.61
35758;BME280;21879;50.110;18.900;2023-02-01T19:27:41;97946.02;;;3.74;71.67
35758;BME280;21879;50.110;18.900;2023-02-01T19:38:08;97917.77;;;3.63;71.38
35758;BME280;21879;50.110;18.900;2023-02-01T19:48:36;97909.06;;;3.45;71.79
35758;BME280;21879;50.110;18.900;2023-02-01T19:59:04;97901.10;;;3.34;72.19
35758;BME280;21879;50.110;18.900;2023-02-01T20:09:32;97888.35;;;3.30;72.37
35758;BME280;21879;50.110;18.900;2023-02-01T20:19:59;97878.89;;;3.26;72.52
35758;BME280;21879;50.110;18.900;2023-02-01T20:30:27;97862.66;;;3.15;72.89
35758;BME280;21879;50.110;18.900;2023-02-01T20:41:02;97844.60;;;3.11;72.80
35758;BME280;21879;50.110;18.900;2023-02-01T20:51:30;97841.50;;;3.09;73.24
35758;BME280;21879;50.110;18.900;2023-02-01T21:01:58;97849.17;;;3.01;73.32
35758;BME280;21879;50.110;18.900;2023-02-01T21:12:27;97834.67;;;2.89;73.86
35758;BME280;21879;50.110;18.900;2023-02-01T21:22:56;97811.27;;;2.84;74.01
35758;BME280;21879;50.110;18.900;2023-02-01T21:33:24;97796.50;;;2.82;74.51
35758;BME280;21879;50.110;18.900;2023-02-01T21:43:51;97799.33;;;2.93;74.59
35758;BME280;21879;50.110;18.900;2023-02-01T21:54:19;97792.77;;;2.88;74.52
35758;BME280;21879;50.110;18.900;2023-02-01T22:04:47;97795.66;;;2.83;74.83
35758;BME280;21879;50.110;18.900;2023-02-01T22:15:16;97808.36;;;2.83;74.87
35758;BME280;21879;50.110;18.900;2023-02-01T22:25:44;97814.02;;;2.80;75.11
35758;BME280;21879;50.110;18.900;2023-02-01T22:36:11;97809.55;;;2.79;75.11
35758;BME280;21879;50.110;18.900;2023-02-01T22:46:40;97798.64;;;2.91;74.88
35758;BME280;21879;50.110;18.900;2023-02-01T22:57:08;97801.39;;;2.93;74.85
35758;BME280;21879;50.110;18.900;2023-02-01T23:07:36;97809.23;;;2.85;75.07
35758;BME280;21879;50.110;18.900;2023-02-01T23:18:04;97829.58;;;2.74;75.13
35758;BME280;21879;50.110;18.900;2023-02-01T23:28:32;97837.05;;;2.63;75.48
35758;BME280;21879;50.110;18.900;2023-02-01T23:39:00;97831.73;;;2.61;75.29
35758;BME280;21879;50.110;18.900;2023-02-01T23:49:28;97834.29;;;2.61;75.10
35758;BME280;21879;50.110;18.900;2023-02-01T23:59:58;97835.72;;;2.47;75.13
